Time;durP1;ratioP1;P1;durP2;ratioP2;P2;SDS_P1;SDS_P2;PMS_P1;PMS_P2;Temp;Humidity;BMP_temperature;BMP_pressure;BME280_temperature;BME280_humidity;BME280_pressure;Samples;Min_cycle;Max_cycle;Signal;HPM_P1;HPM_P2
2021/09/13 00:00:52;;;;;;;0.00;0.00;;;;;;;15.14;61.93;101296.03;2611914;31;20030;-60
2021/09/13 00:03:20;;;;;;;0.00;0.00;;;;;;;15.14;61.31;101296.03;2610243;36;20034;-61
2021/09/13 00:05:48;;;;;;;;;;;;;;;15.16;58.37;101294.25;2613494;31;20034;-60
2021/09/13 00:08:15;;;;;;;0.00;0.00;;;;;;;15.12;61.25;101287.34;2613710;31;19958;-60
2021/09/13 00:10:43;;;;;;;0.00;0.00;;;;;;;15.08;60.36;101290.97;2612546;36;20027;-60
2021/09/13 00:13:10;;;;;;;0.00;0.00;;;;;;;15.05;60.22;101291.97;2613343;31;20125;-60
2021/09/13 00:15:38;;;;;;;0.00;0.00;;;;;;;14.99;59.97;101280.75;2610761;36;20038;-60
2021/09/13 00:18:07;;;;;;;0.00;0.00;;;;;;;15.00;60.02;101287.72;2612262;31;20458;-61
2021/09/13 00:20:37;;;;;;;0.00;0.00;;;;;;;14.98;59.71;101284.28;2609847;36;20061;-59
2021/09/13 00:23:04;;;;;;;0.00;0.00;;;;;;;14.96;60.01;101286.13;2613664;31;20046;-59
2021/09/13 00:25:31;;;;;;;0.00;0.00;;;;;;;14.94;59.50;101293.19;2611612;31;20133;-60
2021/09/13 00:27:58;;;;;;;0.00;0.00;;;;;;;14.92;59.60;101284.50;2611969;31;20044;-60
2021/09/13 00:30:26;;;;;;;0.00;0.00;;;;;;;14.90;59.76;101295.06;2612150;31;20035;-59
2021/09/13 00:32:55;;;;;;;0.00;0.00;;;;;;;14.79;59.63;101271.72;2614456;31;20027;-60
2021/09/13 00:35:25;;;;;;;0.00;0.00;;;;;;;14.87;59.15;101291.66;2609475;36;20038;-61
2021/09/13 00:37:52;;;;;;;0.00;0.00;;;;;;;14.84;59.50;101286.47;2611993;31;20541;-60
2021/09/13 00:40:20;;;;;;;0.00;0.00;;;;;;;14.82;59.39;101278.66;2612943;31;20129;-60
2021/09/13 00:42:48;;;;;;;;;;;;;;;14.85;58.10;101288.19;2611957;31;20034;-60
2021/09/13 00:45:16;;;;;;;0.00;0.00;;;;;;;14.81;59.50;101283.97;2612914;31;20526;-60
2021/09/13 00:47:43;;;;;;;0.00;0.00;;;;;;;14.78;60.10;101285.78;2610920;31;20073;-61
2021/09/13 00:50:10;;;;;;;0.00;0.00;;;;;;;14.77;59.95;101286.69;2613002;31;20142;-59
2021/09/13 00:52:38;;;;;;;0.00;0.00;;;;;;;14.76;60.51;101284.97;2612880;31;20042;-60
2021/09/13 00:55:05;;;;;;;0.00;0.00;;;;;;;14.76;60.76;101284.09;2611959;31;20035;-60
2021/09/13 00:57:34;;;;;;;0.00;0.00;;;;;;;14.77;60.70;101284.06;2612915;31;20170;-60
2021/09/13 01:00:01;;;;;;;0.00;0.00;;;;;;;14.64;60.91;101256.41;2614073;31;20577;-60
2021/09/13 01:02:28;;;;;;;0.00;0.00;;;;;;;14.82;60.71;101278.66;2611445;36;20140;-60
2021/09/13 01:04:55;;;;;;;0.00;0.00;;;;;;;14.85;61.24;101267.16;2612055;31;20034;-60
2021/09/13 01:07:22;;;;;;;0.00;0.00;;;;;;;14.88;61.29;101261.81;2612780;36;20155;-60
2021/09/13 01:09:49;;;;;;;0.00;0.00;;;;;;;14.92;61.05;101263.44;2611212;36;20058;-60
2021/09/13 01:12:17;;;;;;;0.00;0.00;;;;;;;14.95;61.03;101258.97;2612966;31;20058;-60
2021/09/13 01:14:44;;;;;;;0.00;0.00;;;;;;;14.99;61.14;101259.72;2613937;31;20040;-60
2021/09/13 01:17:11;;;;;;;0.00;0.00;;;;;;;15.00;61.06;101258.78;2612571;31;20039;-60
2021/09/13 01:19:40;;;;;;;0.00;0.00;;;;;;;14.99;61.08;101243.94;2610401;31;20034;-61
2021/09/13 01:22:11;;;;;;;0.00;0.00;;;;;;;15.11;61.08;101254.06;2611218;31;20034;-60
2021/09/13 01:24:52;;;;;;;0.00;0.00;;;;;;;15.13;61.39;101254.88;2611517;31;20061;-60
2021/09/13 01:27:20;;;;;;;0.00;0.00;;;;;;;15.10;61.55;101241.81;2611421;36;20061;-61
2021/09/13 01:29:47;;;;;;;;;;;;;;;15.20;59.55;101248.47;2612152;31;20031;-59
2021/09/13 01:32:15;;;;;;;0.00;0.00;;;;;;;15.18;61.64;101238.94;2613531;31;19992;-60
2021/09/13 01:34:49;;;;;;;0.00;0.00;;;;;;;15.16;61.34;101233.72;2615018;31;20038;-60
2021/09/13 01:37:19;;;;;;;0.00;0.00;;;;;;;15.13;61.13;101228.56;2610913;31;20065;-60
2021/09/13 01:39:47;;;;;;;0.00;0.00;;;;;;;15.17;61.36;101229.31;2613408;31;20030;-60
2021/09/13 01:42:15;;;;;;;0.00;0.00;;;;;;;15.11;61.29;101224.28;2611077;31;20037;-59
2021/09/13 01:44:43;;;;;;;0.00;0.00;;;;;;;15.20;61.11;101227.44;2613403;31;20057;-61
2021/09/13 01:47:10;;;;;;;0.00;0.00;;;;;;;15.21;61.39;101229.19;2611445;31;20580;-61
2021/09/13 01:49:40;;;;;;;0.00;0.00;;;;;;;15.26;61.48;101224.63;2614939;31;20034;-60
2021/09/13 01:52:07;;;;;;;0.00;0.00;;;;;;;15.28;61.79;101230.69;2613474;31;20077;-60
2021/09/13 01:54:34;;;;;;;0.00;0.00;;;;;;;15.28;61.39;101225.41;2612123;31;20065;-60
2021/09/13 01:57:05;;;;;;;0.00;0.00;;;;;;;15.37;61.64;101224.25;2611626;31;20034;-59
2021/09/13 01:59:37;;;;;;;0.00;0.00;;;;;;;15.41;60.84;101219.72;2608256;31;20075;-61
2021/09/13 02:02:05;;;;;;;0.00;0.00;;;;;;;15.45;61.40;101221.34;2610947;31;20524;-60
2021/09/13 02:04:32;;;;;;;0.00;0.00;;;;;;;15.48;61.33;101218.63;2610520;31;20030;-60
2021/09/13 02:07:00;;;;;;;0.00;0.00;;;;;;;15.51;61.40;101206.22;2609869;31;20577;-60
2021/09/13 02:09:27;;;;;;;0.00;0.00;;;;;;;15.55;62.26;101206.94;2628908;31;20037;-61
2021/09/13 02:11:54;;;;;;;0.00;0.00;;;;;;;15.58;61.45;101214.75;2609856;31;20117;-61
2021/09/13 02:14:26;;;;;;;0.00;0.00;;;;;;;15.62;61.41;101208.47;2611239;31;20030;-60
2021/09/13 02:16:54;;;;;;;0.00;0.00;;;;;;;15.65;61.52;101213.63;2612313;31;20030;-59
2021/09/13 02:19:21;;;;;;;0.00;0.00;;;;;;;15.68;61.26;101208.28;2610232;36;20991;-61
2021/09/13 02:21:49;;;;;;;;;;;;;;;15.76;59.51;101208.88;2609906;31;20057;-60
2021/09/13 02:24:16;;;;;;;0.00;0.00;;;;;;;15.74;61.30;101208.03;2610778;31;19977;-60
2021/09/13 02:26:44;;;;;;;0.00;0.00;;;;;;;15.75;60.93;101209.75;2609276;31;20561;-61
2021/09/13 02:29:11;;;;;;;0.00;0.00;;;;;;;15.77;61.19;101209.72;2610297;31;21522;-60
2021/09/13 02:31:39;;;;;;;0.00;0.00;;;;;;;15.77;61.13;101205.31;2608839;31;20055;-60
2021/09/13 02:34:06;;;;;;;0.00;0.00;;;;;;;15.80;61.61;101201.69;2613087;31;20811;-60
2021/09/13 02:36:33;;;;;;;0.00;0.00;;;;;;;15.82;61.30;101200.75;2609578;31;20034;-60
2021/09/13 02:39:02;;;;;;;0.00;0.00;;;;;;;15.84;61.09;101187.50;2613339;31;20100;-61
2021/09/13 02:41:30;;;;;;;0.00;0.00;;;;;;;15.87;61.40;101186.56;2607734;36;20073;-60
2021/09/13 02:43:58;;;;;;;0.10;0.10;;;;;;;15.88;61.47;101178.59;2610195;31;20182;-60
2021/09/13 02:46:25;;;;;;;0.05;0.05;;;;;;;15.91;60.92;101188.13;2610606;31;20037;-60
2021/09/13 02:48:54;;;;;;;0.00;0.00;;;;;;;15.93;61.44;101183.69;2609740;36;20034;-61
2021/09/13 02:51:23;;;;;;;0.00;0.00;;;;;;;15.95;61.45;101180.06;2611204;31;20027;-60
2021/09/13 02:53:50;;;;;;;0.00;0.00;;;;;;;15.97;61.55;101172.13;2608606;31;20053;-61
2021/09/13 02:56:17;;;;;;;0.00;0.00;;;;;;;15.99;61.29;101165.88;2611230;31;20073;-60
2021/09/13 02:58:46;;;;;;;0.00;0.00;;;;;;;16.01;61.39;101164.03;2610797;31;20126;-59
2021/09/13 03:01:14;;;;;;;0.00;0.00;;;;;;;16.03;61.45;101166.63;2612508;31;20077;-60
2021/09/13 03:03:43;;;;;;;0.00;0.00;;;;;;;16.04;62.34;101169.19;2606753;31;20054;-60
2021/09/13 03:06:13;;;;;;;0.00;0.00;;;;;;;16.07;61.58;101162.97;2608897;31;20042;-61
2021/09/13 03:08:42;;;;;;;0.00;0.00;;;;;;;16.07;61.64;101158.53;2607039;31;20034;-59
2021/09/13 03:11:09;;;;;;;0.00;0.00;;;;;;;16.08;61.18;101154.97;2610308;31;20042;-60
2021/09/13 03:13:36;;;;;;;;;;;;;;;16.16;59.64;101162.56;2608777;31;20640;-59
2021/09/13 03:16:04;;;;;;;0.00;0.00;;;;;;;16.12;61.75;101158.38;2608044;31;19957;-59
2021/09/13 03:18:33;;;;;;;0.00;0.00;;;;;;;16.14;61.67;101161.78;2609458;31;20034;-59
2021/09/13 03:21:03;;;;;;;0.00;0.00;;;;;;;16.04;61.98;101142.84;2608667;31;20612;-60
2021/09/13 03:23:31;;;;;;;0.00;0.00;;;;;;;16.16;61.95;101167.84;2608302;31;20081;-60
2021/09/13 03:25:58;;;;;;;0.00;0.00;;;;;;;16.05;62.09;101152.44;2608438;31;20143;-60
2021/09/13 03:28:28;;;;;;;0.00;0.00;;;;;;;16.12;61.58;101150.47;2609850;31;20042;-59
2021/09/13 03:30:55;;;;;;;0.00;0.00;;;;;;;16.18;61.79;101157.28;2612120;31;20597;-60
2021/09/13 03:33:24;;;;;;;0.00;0.00;;;;;;;16.20;61.85;101158.06;2610381;31;20026;-60
2021/09/13 03:35:51;;;;;;;0.00;0.00;;;;;;;16.21;62.21;101146.59;2609336;31;20061;-60
2021/09/13 03:38:18;;;;;;;0.00;0.00;;;;;;;16.17;62.30;101143.25;2608603;36;20034;-60
2021/09/13 03:40:46;;;;;;;0.00;0.00;;;;;;;16.15;62.17;101125.75;2608468;31;20030;-59
2021/09/13 03:43:13;;;;;;;0.00;0.00;;;;;;;16.26;62.02;101132.31;2608931;31;20069;-60
2021/09/13 03:45:41;;;;;;;0.00;0.00;;;;;;;16.22;61.91;101124.59;2608660;31;20034;-60
2021/09/13 03:48:26;;;;;;;0.00;0.00;;;;;;;16.30;62.11;101133.91;2609325;31;20756;-60
2021/09/13 03:50:53;;;;;;;0.00;0.00;;;;;;;16.32;62.12;101132.09;2610588;31;20034;-59
2021/09/13 03:53:21;;;;;;;0.00;0.00;;;;;;;16.28;62.14;101119.97;2610277;31;20057;-60
2021/09/13 03:55:49;;;;;;;0.00;0.00;;;;;;;16.34;61.79;101132.03;2609090;31;20042;-60
2021/09/13 03:58:16;;;;;;;0.00;0.00;;;;;;;16.37;61.68;101128.41;2606820;36;20077;-60
2021/09/13 04:00:44;;;;;;;0.00;0.00;;;;;;;16.35;61.95;101116.16;2609519;31;20030;-60
2021/09/13 04:03:21;;;;;;;0.00;0.00;;;;;;;16.38;61.55;101120.44;2609836;31;20066;-60
2021/09/13 04:05:51;;;;;;;0.00;0.00;;;;;;;16.39;61.76;101121.31;2609357;31;20130;-59
2021/09/13 04:11:56;;;;;;;0.00;0.00;;;;;;;16.43;61.81;101112.34;2575143;31;2004375;-60
2021/09/13 04:14:43;;;;;;;0.00;0.00;;;;;;;16.42;61.59;101114.09;2610638;31;20057;-59
2021/09/13 04:17:28;;;;;;;0.00;0.00;;;;;;;16.42;61.81;101115.88;2610644;31;20057;-59
2021/09/13 04:20:18;;;;;;;0.00;0.00;;;;;;;16.41;61.93;101111.53;2611092;31;20034;-60
2021/09/13 04:23:06;;;;;;;0.00;0.00;;;;;;;16.40;61.54;101109.84;2610010;31;20034;-60
2021/09/13 04:25:50;;;;;;;0.00;0.00;;;;;;;16.38;61.62;101101.16;2611011;31;20069;-60
2021/09/13 04:28:37;;;;;;;0.00;0.00;;;;;;;16.39;62.14;101114.25;2610146;31;20118;-60
2021/09/13 04:31:14;;;;;;;0.00;0.00;;;;;;;16.38;61.92;101104.63;2611527;31;20038;-60
2021/09/13 04:34:02;;;;;;;0.00;0.00;;;;;;;16.38;62.30;101103.78;2613345;31;20441;-59
2021/09/13 04:36:47;;;;;;;0.00;0.00;;;;;;;16.38;61.67;101101.16;2609499;31;20032;-60
2021/09/13 04:39:40;;;;;;;0.00;0.00;;;;;;;16.38;62.11;101093.25;2576979;31;2004457;-60
2021/09/13 04:42:26;;;;;;;0.00;0.00;;;;;;;16.40;62.12;101094.03;2612772;36;20058;-60
2021/09/13 04:45:16;;;;;;;0.00;0.00;;;;;;;16.40;62.34;101086.13;2612739;31;20757;-59
2021/09/13 04:48:10;;;;;;;0.00;0.00;;;;;;;16.40;62.16;101080.84;2577119;31;2004446;-60
2021/09/13 04:50:54;;;;;;;0.00;0.00;;;;;;;16.42;62.88;101095.66;2614529;31;20030;-59
2021/09/13 04:53:40;;;;;;;0.00;0.00;;;;;;;16.43;62.46;101093.91;2611517;31;20042;-60
2021/09/13 04:56:13;;;;;;;0.00;0.00;;;;;;;16.40;62.31;101088.75;2610450;36;20039;-60
2021/09/13 04:58:40;;;;;;;0.10;0.10;;;;;;;16.45;62.44;101099.97;2613491;31;20062;-60
2021/09/13 05:01:08;;;;;;;0.00;0.00;;;;;;;16.45;62.39;101094.69;2610871;31;20133;-60
2021/09/13 05:03:38;;;;;;;0.00;0.00;;;;;;;16.47;62.25;101090.19;2613622;31;20053;-60
2021/09/13 05:06:06;;;;;;;;;;;;;;;16.55;60.43;101090.75;2613311;31;20038;-59
2021/09/13 05:08:33;;;;;;;;;;;;;;;16.57;60.60;101088.91;2612285;31;20327;-59
2021/09/13 05:11:04;;;;;;;0.00;0.00;;;;;;;16.44;62.12;101069.25;2612537;31;20457;-60
2021/09/13 05:13:32;;;;;;;0.00;0.00;;;;;;;16.52;61.81;101082.97;2611886;31;20026;-60
2021/09/13 05:16:00;;;;;;;0.00;0.00;;;;;;;16.52;62.22;101080.31;2611194;31;20112;-59
2021/09/13 05:18:33;;;;;;;0.00;0.00;;;;;;;16.51;62.47;101081.25;2611967;31;20038;-60
2021/09/13 05:21:02;;;;;;;0.00;0.00;;;;;;;16.52;62.47;101080.31;2610940;36;20643;-60
2021/09/13 05:23:32;;;;;;;0.00;0.00;;;;;;;16.49;62.09;101075.19;2613439;31;20584;-60
2021/09/13 05:26:00;;;;;;;0.00;0.00;;;;;;;16.55;62.19;101081.06;2614606;31;20617;-59
2021/09/13 05:28:26;;;;;;;0.00;0.00;;;;;;;16.55;62.39;101080.22;2611236;31;20038;-60
2021/09/13 05:30:58;;;;;;;0.00;0.00;;;;;;;16.57;62.11;101068.69;2613911;31;20051;-60
2021/09/13 05:33:25;;;;;;;;;;;;;;;16.66;60.66;101066.56;2612206;31;20041;-59
2021/09/13 05:35:52;;;;;;;0.00;0.00;;;;;;;16.62;62.11;101071.13;2611710;31;19942;-59
2021/09/13 05:38:23;;;;;;;0.10;0.10;;;;;;;16.63;62.11;101062.31;2612838;31;20034;-60
2021/09/13 05:40:51;;;;;;;0.00;0.00;;;;;;;16.63;61.90;101075.50;2612266;31;20046;-60
2021/09/13 05:43:20;;;;;;;0.00;0.00;;;;;;;16.64;62.29;101069.28;2611308;31;20045;-59
2021/09/13 05:45:51;;;;;;;0.00;0.00;;;;;;;16.65;62.20;101072.78;2610164;31;20150;-60
2021/09/13 05:48:20;;;;;;;0.00;0.00;;;;;;;16.65;61.99;101065.72;2611641;31;20054;-60
2021/09/13 05:50:47;;;;;;;0.00;0.00;;;;;;;16.66;62.31;101067.44;2614033;31;20034;-59
2021/09/13 05:53:20;;;;;;;0.00;0.00;;;;;;;16.67;62.25;101074.41;2611703;31;20030;-60
2021/09/13 05:55:49;;;;;;;0.00;0.00;;;;;;;16.70;63.09;101073.44;2610046;31;20655;-60
2021/09/13 05:58:16;;;;;;;;;;;;;;;16.78;61.44;101066.97;2613079;31;20038;-59
2021/09/13 06:00:48;;;;;;;0.00;0.00;;;;;;;16.73;62.78;101066.31;2610293;36;19950;-60
2021/09/13 06:03:15;;;;;;;0.00;0.00;;;;;;;16.74;63.39;101068.00;2611840;31;20037;-60
2021/09/13 06:05:55;;;;;;;0.00;0.00;;;;;;;16.74;62.52;101067.16;2611902;31;20026;-60
2021/09/13 06:08:23;;;;;;;0.00;0.00;;;;;;;16.74;63.35;101073.28;2612535;31;20121;-60
2021/09/13 06:10:50;;;;;;;0.00;0.00;;;;;;;16.74;63.21;101070.66;2612566;31;21347;-60
2021/09/13 06:13:18;;;;;;;0.00;0.00;;;;;;;16.75;63.28;101072.34;2611911;31;20041;-60
2021/09/13 06:15:47;;;;;;;0.00;0.00;;;;;;;16.76;63.43;101071.44;2611126;31;20068;-60
2021/09/13 06:18:38;;;;;;;0.00;0.00;;;;;;;16.77;63.39;101070.50;2572862;31;2004494;-60
2021/09/13 06:21:05;;;;;;;0.00;0.00;;;;;;;16.78;63.31;101066.97;2612321;31;20054;-60
2021/09/13 06:23:32;;;;;;;0.00;0.00;;;;;;;16.79;63.29;101079.22;2612292;31;20126;-60
2021/09/13 06:26:00;;;;;;;0.00;0.00;;;;;;;16.80;63.31;101080.94;2611896;31;20041;-59
2021/09/13 06:28:27;;;;;;;0.00;0.00;;;;;;;16.82;63.92;101078.22;2607939;31;20042;-60
2021/09/13 06:30:56;;;;;;;0.00;0.00;;;;;;;16.78;63.77;101072.25;2611167;31;20150;-60
2021/09/13 06:33:23;;;;;;;0.00;0.00;;;;;;;16.86;63.65;101085.94;2613767;31;20026;-60
2021/09/13 06:35:50;;;;;;;0.00;0.00;;;;;;;16.88;63.22;101079.72;2608269;31;20035;-60
2021/09/13 06:38:25;;;;;;;0.00;0.00;;;;;;;16.91;63.08;101084.88;2610362;31;20030;-59
2021/09/13 06:40:52;;;;;;;;;;;;;;;17.01;61.53;101083.56;2610483;31;20058;-60
2021/09/13 06:43:20;;;;;;;0.00;0.00;;;;;;;16.96;63.68;101085.56;2612117;31;19951;-62
2021/09/13 06:45:57;;;;;;;0.03;0.03;;;;;;;16.98;63.08;101084.56;2612158;31;20170;-60
2021/09/13 06:48:25;;;;;;;0.00;0.00;;;;;;;16.99;63.38;101074.88;2609848;36;20030;-59
2021/09/13 06:50:52;;;;;;;0.00;0.00;;;;;;;17.02;63.09;101074.72;2611344;36;20046;-60
2021/09/13 06:53:19;;;;;;;0.00;0.00;;;;;;;17.05;63.50;101079.88;2613194;31;20033;-60
2021/09/13 06:55:46;;;;;;;0.00;0.00;;;;;;;17.08;63.38;101079.72;2610494;31;20058;-59
2021/09/13 06:58:13;;;;;;;0.00;0.00;;;;;;;17.11;63.86;101079.59;2610429;31;20594;-60
2021/09/13 07:00:40;;;;;;;0.00;0.00;;;;;;;17.04;64.25;101062.34;2609623;36;20038;-60
2021/09/13 07:03:07;;;;;;;0.00;0.00;;;;;;;17.14;64.54;101068.94;2612021;31;20075;-60
2021/09/13 07:05:35;;;;;;;;;;;;;;;17.29;62.40;101076.16;2610741;31;20041;-60
2021/09/13 07:08:02;;;;;;;0.00;0.00;;;;;;;17.28;65.74;101069.16;2611784;31;19946;-60
2021/09/13 07:10:29;;;;;;;0.00;0.00;;;;;;;17.28;64.26;101069.16;2610399;31;20094;-59
2021/09/13 07:12:57;;;;;;;0.00;0.00;;;;;;;17.34;64.52;101068.91;2610013;31;21048;-59
2021/09/13 07:15:25;;;;;;;0.00;0.00;;;;;;;17.29;64.80;101060.31;2610324;31;20457;-60
2021/09/13 07:17:53;;;;;;;0.00;0.00;;;;;;;17.27;66.53;101042.84;2612765;31;20034;-59
2021/09/13 07:20:21;;;;;;;0.00;0.00;;;;;;;17.48;66.15;101077.97;2615117;31;20090;-59
2021/09/13 07:22:48;;;;;;;0.00;0.00;;;;;;;17.52;66.30;101074.25;2611105;31;20105;-59
2021/09/13 07:25:15;;;;;;;0.00;0.00;;;;;;;17.42;66.06;101054.47;2608627;31;20490;-59
2021/09/13 07:27:42;;;;;;;0.00;0.00;;;;;;;17.62;65.87;101070.28;2612576;31;20034;-60
2021/09/13 07:30:11;;;;;;;0.00;0.00;;;;;;;17.70;65.35;101081.34;2611048;36;20037;-60
2021/09/13 07:32:39;;;;;;;0.00;0.00;;;;;;;17.69;65.24;101070.84;2615458;31;20035;-60
2021/09/13 07:35:08;;;;;;;0.00;0.00;;;;;;;17.80;66.13;101074.75;2612178;31;20151;-60
2021/09/13 07:37:36;;;;;;;0.00;0.00;;;;;;;17.86;65.70;101078.88;2610199;31;20034;-60
2021/09/13 07:40:05;;;;;;;0.05;0.05;;;;;;;17.93;66.39;101074.16;2627686;31;20657;-60
2021/09/13 07:42:32;;;;;;;0.00;0.00;;;;;;;17.94;66.36;101067.94;2613118;31;20046;-60
2021/09/13 07:45:01;;;;;;;0.00;0.00;;;;;;;17.97;66.23;101055.44;2613093;31;20034;-60
2021/09/13 07:47:30;;;;;;;0.00;0.00;;;;;;;18.12;67.39;101075.00;2612258;31;20030;-59
2021/09/13 07:49:58;;;;;;;0.00;0.00;;;;;;;18.17;66.00;101073.00;2614144;31;20817;-60
2021/09/13 07:52:26;;;;;;;0.00;0.00;;;;;;;18.22;65.70;101065.69;2611512;31;20034;-58
2021/09/13 07:54:53;;;;;;;0.05;0.05;;;;;;;18.29;66.27;101072.38;2611400;31;20041;-59
2021/09/13 07:57:20;;;;;;;0.00;0.00;;;;;;;18.23;67.83;101040.09;2610039;36;20037;-60
2021/09/13 07:59:47;;;;;;;0.00;0.00;;;;;;;18.42;66.52;101067.34;2612744;31;20030;-60
2021/09/13 08:02:14;;;;;;;0.00;0.00;;;;;;;18.48;66.71;101066.19;2610641;31;20046;-60
2021/09/13 08:04:42;;;;;;;0.00;0.00;;;;;;;18.51;66.58;101060.78;2610310;31;20030;-60
2021/09/13 08:07:09;;;;;;;0.00;0.00;;;;;;;18.56;66.71;101066.69;2611088;31;20030;-59
2021/09/13 08:09:36;;;;;;;0.00;0.00;;;;;;;18.66;67.15;101062.63;2610487;31;20742;-60
2021/09/13 08:12:03;;;;;;;0.00;0.00;;;;;;;18.72;67.21;101059.72;2613562;31;20038;-60
2021/09/13 08:14:31;;;;;;;0.00;0.00;;;;;;;18.77;67.43;101052.41;2612630;31;20038;-60
2021/09/13 08:16:58;;;;;;;0.00;0.00;;;;;;;18.83;66.83;101054.72;2610399;31;20030;-60
2021/09/13 08:19:25;;;;;;;0.00;0.00;;;;;;;18.89;66.57;101046.47;2614564;31;20117;-60
2021/09/13 08:21:53;;;;;;;0.00;0.00;;;;;;;18.87;66.79;101043.03;2611463;36;20038;-60
2021/09/13 08:24:22;;;;;;;0.00;0.00;;;;;;;18.97;66.95;101048.72;2612514;31;20623;-60
2021/09/13 08:26:55;;;;;;;0.00;0.00;;;;;;;18.99;66.66;101046.84;2611033;31;20046;-59
2021/09/13 08:29:23;;;;;;;0.00;0.00;;;;;;;19.02;66.38;101054.63;2612729;31;20042;-60
2021/09/13 08:31:51;;;;;;;0.00;0.00;;;;;;;19.04;67.23;101049.25;2611527;31;20619;-60
2021/09/13 08:34:19;;;;;;;0.03;0.03;;;;;;;19.05;66.36;101045.66;2614506;31;20533;-60
2021/09/13 08:36:47;;;;;;;0.00;0.00;;;;;;;19.07;66.72;101049.09;2610966;31;20039;-60
2021/09/13 08:39:14;;;;;;;0.00;0.00;;;;;;;19.08;66.83;101050.81;2612558;31;20039;-60
2021/09/13 08:41:42;;;;;;;;;;;;;;;19.19;64.29;101048.44;2612057;31;20038;-60
2021/09/13 08:44:10;;;;;;;0.00;0.00;;;;;;;19.15;66.41;101060.13;2609233;31;19950;-60
2021/09/13 08:49:11;;;;;;;0.00;0.00;;;;;;;19.18;67.04;101054.69;2610063;36;20041;-60
2021/09/13 08:51:38;;;;;;;0.00;0.00;;;;;;;19.19;66.78;101051.94;2612137;31;20454;-59
2021/09/13 08:54:11;;;;;;;0.00;0.00;;;;;;;19.19;66.31;101048.44;2611915;31;20042;-59
2021/09/13 08:56:42;;;;;;;0.00;0.00;;;;;;;19.22;66.57;101053.59;2611657;31;20541;-60
2021/09/13 08:59:16;;;;;;;0.00;0.00;;;;;;;19.15;66.40;101031.00;2612093;31;20035;-60
2021/09/13 09:01:44;;;;;;;0.00;0.00;;;;;;;19.30;66.76;101040.78;2611724;31;20031;-59
2021/09/13 09:04:12;;;;;;;0.00;0.00;;;;;;;19.34;66.15;101047.63;2609337;36;20157;-59
2021/09/13 09:06:41;;;;;;;;;;;;;;;19.50;64.72;101041.50;2612893;31;20034;-60
2021/09/13 09:09:14;;;;;;;0.00;0.00;;;;;;;19.49;67.07;101045.09;2609024;31;19946;-60
2021/09/13 09:12:01;;;;;;;0.00;0.00;;;;;;;19.59;65.54;101047.19;2612744;31;20038;-60
2021/09/13 09:14:42;;;;;;;0.00;0.00;;;;;;;19.63;66.06;101043.44;2612703;31;20041;-60
2021/09/13 09:17:25;;;;;;;0.00;0.00;;;;;;;19.69;66.04;101043.09;2612626;31;20632;-60
2021/09/13 09:20:07;;;;;;;0.00;0.00;;;;;;;19.77;65.82;101040.03;2610625;31;20164;-60
2021/09/13 09:22:40;;;;;;;0.10;0.10;;;;;;;19.79;67.44;101042.59;2609841;31;20041;-59
2021/09/13 09:25:09;;;;;;;0.00;0.00;;;;;;;19.87;67.37;101041.22;2611940;31;20038;-60
2021/09/13 09:27:56;;;;;;;0.00;0.00;;;;;;;20.05;65.66;101043.75;2612491;31;20034;-60
2021/09/13 09:30:38;;;;;;;;;;;;;;;20.13;64.53;101037.09;2612179;31;20736;-59
2021/09/13 09:33:10;;;;;;;0.00;0.00;;;;;;;20.17;65.71;101032.44;2611093;31;20492;-60
2021/09/13 09:35:49;;;;;;;0.00;0.00;;;;;;;20.23;65.34;101042.72;2613700;31;20049;-59
2021/09/13 09:38:32;;;;;;;0.00;0.00;;;;;;;20.34;65.03;101037.66;2613442;31;20034;-60
2021/09/13 09:41:09;;;;;;;0.00;0.00;;;;;;;20.43;65.33;101038.91;2627403;31;20042;-60
2021/09/13 09:43:56;;;;;;;0.00;0.00;;;;;;;20.56;64.53;101041.72;2613450;31;20062;-61
2021/09/13 09:46:45;;;;;;;0.00;0.00;;;;;;;20.58;63.13;101026.56;2610726;31;20041;-60
2021/09/13 09:49:15;;;;;;;0.00;0.00;;;;;;;20.70;63.69;101032.00;2612472;31;20640;-60
2021/09/13 09:51:49;;;;;;;0.00;0.00;;;;;;;20.79;63.74;101035.91;2611125;31;20062;-60
2021/09/13 09:54:18;;;;;;;0.00;0.00;;;;;;;20.75;63.40;101029.06;2613441;31;20065;-60
2021/09/13 09:57:07;;;;;;;0.00;0.00;;;;;;;20.86;63.61;101039.03;2610439;31;20035;-60
2021/09/13 09:59:38;;;;;;;0.08;0.08;;;;;;;20.84;63.01;101020.56;2611898;31;20038;-60
2021/09/13 10:02:16;;;;;;;0.00;0.00;;;;;;;20.98;62.84;101036.53;2612883;31;20537;-59
2021/09/13 10:04:49;;;;;;;0.00;0.00;;;;;;;20.99;62.21;101035.56;2610496;31;20137;-59
2021/09/13 10:07:16;;;;;;;0.00;0.00;;;;;;;20.96;61.04;101032.22;2612388;31;20031;-60
2021/09/13 10:09:44;;;;;;;0.10;0.10;;;;;;;20.96;62.27;101030.44;2611520;36;20041;-60
2021/09/13 10:12:12;;;;;;;0.00;0.00;;;;;;;20.91;61.39;101029.84;2610667;36;20035;-60
2021/09/13 10:14:39;;;;;;;;;;;;;;;21.04;61.36;101032.63;2613118;31;20058;-59
2021/09/13 10:17:07;;;;;;;0.00;0.00;;;;;;;20.92;61.39;101026.25;2613480;31;19953;-60
2021/09/13 10:19:47;;;;;;;0.00;0.00;;;;;;;20.87;61.43;101023.03;2611598;31;20037;-59
2021/09/13 10:22:14;;;;;;;0.10;0.10;;;;;;;20.83;61.40;101024.16;2613739;31;20425;-60
2021/09/13 10:24:46;;;;;;;0.00;0.00;;;;;;;20.81;61.34;101015.44;2611326;31;20038;-59
2021/09/13 10:27:15;;;;;;;0.00;0.00;;;;;;;20.78;61.58;101018.25;2611945;31;20112;-60
2021/09/13 10:29:43;;;;;;;0.00;0.00;;;;;;;20.76;62.14;101016.66;2610685;31;20034;-60
2021/09/13 10:32:14;;;;;;;0.10;0.10;;;;;;;20.77;62.16;101024.53;2611508;31;20034;-60
2021/09/13 10:34:42;;;;;;;0.00;0.00;;;;;;;20.74;62.09;101016.75;2613109;31;20038;-60
2021/09/13 10:37:37;;;;;;;0.00;0.00;;;;;;;20.81;61.99;101012.78;2609922;31;20038;-60
2021/09/13 10:40:07;;;;;;;0.00;0.00;;;;;;;20.78;62.15;101014.75;2573989;31;2004471;-60
2021/09/13 10:42:38;;;;;;;0.00;0.00;;;;;;;20.80;61.85;101021.69;2610636;31;20041;-60
2021/09/13 10:45:36;;;;;;;0.00;0.00;;;;;;;20.83;61.85;101016.19;2611874;31;20042;-60
2021/09/13 10:48:09;;;;;;;0.00;0.00;;;;;;;20.80;61.17;101012.88;2574416;31;2004379;-60
2021/09/13 10:50:48;;;;;;;0.00;0.00;;;;;;;20.78;62.29;101012.94;2611197;31;20031;-60
2021/09/13 10:53:18;;;;;;;0.00;0.00;;;;;;;20.80;62.02;101010.22;2611369;31;20041;-60
2021/09/13 10:55:52;;;;;;;0.00;0.00;;;;;;;20.77;61.41;101011.25;2611996;31;20034;-60
2021/09/13 10:58:37;;;;;;;0.00;0.00;;;;;;;20.75;61.30;101013.16;2610836;31;20568;-60
2021/09/13 11:01:06;;;;;;;0.00;0.00;;;;;;;20.74;61.75;101003.50;2613726;31;20069;-60
2021/09/13 11:03:41;;;;;;;0.00;0.00;;;;;;;20.74;62.00;101011.44;2611685;31;20111;-60
2021/09/13 11:06:16;;;;;;;0.00;0.00;;;;;;;20.71;61.77;101001.84;2609235;31;20031;-60
2021/09/13 11:08:52;;;;;;;0.00;0.00;;;;;;;20.77;61.36;100995.31;2610460;31;20034;-60
2021/09/13 11:11:43;;;;;;;0.00;0.00;;;;;;;20.78;62.05;101001.47;2612178;31;20043;-60
2021/09/13 11:14:18;;;;;;;0.00;0.00;;;;;;;20.81;61.82;101002.16;2614623;31;20039;-59
2021/09/13 11:16:57;;;;;;;0.00;0.00;;;;;;;20.85;61.25;100992.22;2609131;36;20045;-60
2021/09/13 11:19:28;;;;;;;0.00;0.00;;;;;;;20.81;61.81;100996.84;2612037;31;20450;-59
2021/09/13 11:22:04;;;;;;;0.00;0.00;;;;;;;20.86;61.52;100989.47;2611076;31;20035;-60
2021/09/13 11:24:39;;;;;;;0.10;0.10;;;;;;;20.85;62.11;100987.75;2612610;31;20038;-60
2021/09/13 11:27:13;;;;;;;0.00;0.00;;;;;;;20.91;61.05;100989.19;2611140;31;20042;-60
2021/09/13 11:29:43;;;;;;;0.00;0.00;;;;;;;20.91;61.72;100992.69;2612488;31;20053;-58
2021/09/13 11:32:15;;;;;;;0.00;0.00;;;;;;;20.91;60.97;100995.34;2610933;31;20077;-60
2021/09/13 11:34:44;;;;;;;0.00;0.00;;;;;;;20.91;60.96;100987.38;2612758;31;20039;-60
2021/09/13 11:37:33;;;;;;;0.00;0.00;;;;;;;20.95;60.67;100988.91;2612558;31;20735;-60
2021/09/13 11:40:25;;;;;;;0.00;0.00;;;;;;;20.95;60.79;100983.59;2572721;36;2004507;-60
2021/09/13 11:42:53;;;;;;;0.00;0.00;;;;;;;20.90;60.93;100983.03;2611447;31;20041;-60
2021/09/13 11:45:20;;;;;;;0.00;0.00;;;;;;;20.91;60.98;100976.75;2610527;31;20628;-60
2021/09/13 11:47:53;;;;;;;0.00;0.00;;;;;;;20.92;61.34;100980.25;2611092;31;20059;-60
2021/09/13 11:50:23;;;;;;;0.00;0.00;;;;;;;20.85;61.29;100961.22;2609357;31;20034;-60
2021/09/13 11:52:50;;;;;;;0.00;0.00;;;;;;;20.96;61.28;100977.31;2610061;31;20077;-60